Friday, November 24, 2017, 8:10 AM EST
Back to Local

KPSF, Pittsfield Municipal Airport

Location: Pittsfield, MA, United States Lat: 42.433
Local Time: 8:10 AM EST (13:10 GMT) Lon: -73.283
Time Zone: US/Eastern Elev: 1194 ft

Show me the last for .
Show Decoded

2017-11-24 07:54 METAR KPSF 241254Z AUTO 00000KT 10SM CLR M02/M06 A2997 RMK AO2 SLP162 T10221061
                 =
2017-11-24 06:54 METAR KPSF 241154Z AUTO 00000KT 10SM CLR M03/M07 A2996 RMK AO2 SLP160 T10331072
                 10011 21033 53008 =
2017-11-24 05:54 METAR KPSF 241054Z AUTO 00000KT 10SM CLR M03/M07 A2995 RMK AO2 SLP153 T10281067
                 =
2017-11-24 04:54 METAR KPSF 240954Z AUTO 28003KT 10SM CLR M03/M07 A2994 RMK AO2 SLP151 T10331072
                 =
2017-11-24 03:54 METAR KPSF 240854Z AUTO 24006KT 10SM OVC032 00/M07 A2994 RMK AO2 SLP147
                 T00001072 50000 =
2017-11-24 02:54 METAR KPSF 240754Z AUTO 24006KT 10SM OVC040 01/M07 A2994 RMK AO2 SLP147
                 T00061072 =
2017-11-24 01:54 METAR KPSF 240654Z AUTO 22005KT 10SM FEW027 OVC042 01/M07 A2995 RMK AO2 SLP149
                 T00061072 =
2017-11-24 00:54 METAR KPSF 240554Z AUTO 00000KT 10SM OVC050 M02/M06 A2994 RMK AO2 SLP147
                 T10171056 10000 21033 58001 =
2017-11-23 23:54 METAR KPSF 240454Z AUTO 00000KT 10SM OVC060 M02/M06 A2994 RMK AO2 SLP148
                 T10171056 400171033 =
2017-11-23 22:54 METAR KPSF 240354Z AUTO 24005KT 10SM CLR M02/M07 A2994 RMK AO2 SLP149 T10171072
                 =
2017-11-23 21:54 METAR KPSF 240254Z AUTO 28005KT 10SM OVC090 M01/M07 A2994 RMK AO2 SLP149
                 T10061067 58001 =
2017-11-23 20:54 METAR KPSF 240154Z AUTO 27006KT 10SM OVC090 M01/M06 A2995 RMK AO2 SLP155
                 T10111061 =
2017-11-23 19:54 METAR KPSF 240054Z AUTO 00000KT 10SM BKN090 M02/M07 A2996 RMK AO2 SLP158
                 T10221072 =
2017-11-23 18:54 METAR KPSF 232354Z AUTO 22003KT 10SM CLR M02/M08 A2994 RMK AO2 SLP153 T10171083
                 10017 21017 58002 =
2017-11-23 17:54 METAR KPSF 232254Z AUTO 00000KT 10SM CLR M01/M08 A2995 RMK AO2 SLP155 T10061083
                 =
2017-11-23 16:54 METAR KPSF 232154Z AUTO 00000KT 10SM CLR 00/M08 A2996 RMK AO2 SLP157 T00001083 =
2017-11-23 15:54 METAR KPSF 232054Z AUTO 28005KT 10SM CLR 00/M08 A2995 RMK AO2 SLP152 T00001083
                 55007 =
2017-11-23 14:54 METAR KPSF 231954Z AUTO 31007KT 10SM CLR 01/M09 A2995 RMK AO2 SLP151 T00061089 =
2017-11-23 13:54 METAR KPSF 231854Z AUTO 28009KT 10SM CLR 01/M08 A2996 RMK AO2 SLP156 T00061083 =
2017-11-23 12:54 METAR KPSF 231754Z AUTO 31006KT 10SM FEW110 02/M08 A2997 RMK AO2 SLP158
                 T00171083 10017 21033 58014 =
2017-11-23 11:54 METAR KPSF 231654Z AUTO 32008G17KT 10SM CLR 01/M08 A2999 RMK AO2 SLP165
                 T00111083 =
2017-11-23 10:54 METAR KPSF 231554Z AUTO 31008KT 10SM CLR 00/M08 A3002 RMK AO2 SLP176 T00001083 =
2017-11-23 09:54 METAR KPSF 231454Z AUTO 31012G18KT 10SM CLR M01/M08 A3002 RMK AO2 SLP175
                 T10111083 58003 =
2017-11-23 08:54 METAR KPSF 231354Z AUTO 32007KT 10SM CLR M02/M08 A3002 RMK AO2 SLP175 T10171083
                 =

Support USWX by starting your Amazon purchase here.